Etusivu
METAR-TAF:

METAR-TAF

Lentoasemat :

Växjö, Ruotsi

Leveyspiiri: 56-51N, Pituuspiiri: 014-50E, korkeus merenpinnasta: 199 m

Tämänhetkinen sää

Tämä raportti tehtiin 39 minuuttia sitten, kello 03.50 UTC
Tuuli 17 kn lounaasta
Lämpötila 10°C
Kosteus 82%
Ilmanpaine 1022 hPa
Näkyvyys 10 km tai enemmän
Hajonneita pilviä 1500 ft:n korkeudessa

METAR: ESMX 260350Z 22017KT 9999 BKN015 10/07 Q1022

Aika: 06:29 (04:29 UTC)

Sääennuste

Tämä raportti tehtiin 59 minuuttia sitten, kello 03.30 UTC
Ennuste voimassa 26. päivästä klo 04 UTC - 26. päivään klo 12 UTC
Tuuli 15 kn lounaasta
Näkyvyys 10 km tai enemmän
Hajanaisia pilviä 2000 ft:n korkeudessa
Ajoittain
26. päivästä klo 04 UTC - 26. päivään klo 12 UTC
Tuuli 18 kn lännestä/lounaasta puuskistuen 30 kn:hen
Hajonneita pilviä 1200 ft:n korkeudessa

TAF: ESMX 260330Z 2604/2612 22015KT 9999 SCT020 TEMPO 2604/2612 24018G30KT BKN012

Säähavainnot ja -ennusteet yli 4000 lentoasemalta (METAR- ja TAF-raportit).

Käytössä olevat sääasemat on merkitty karttaan keltaisilla ja punaisilla pisteillä.

Aseta hiiri pisteen päälle nähdäksesi sääaseman nimen.

Klikkaa sitten nähdäksesi säähavainnot ja -ennusteet.

Kartan vaihtaminen: klikkaa mustalla rastilla varustettuja vihreitä pisteitä, niin voit zoomata sisään; viivalla varustettua vihreää pistettä, niin voit zoomata ulos tai vihreitä nuolia, niin pääset viereisille kartoille.


METAR-TAF: